Time;durP1;ratioP1;P1;durP2;ratioP2;P2;SDS_P1;SDS_P2;PMS_P1;PMS_P2;Temp;Humidity;BMP_temperature;BMP_pressure;BME280_temperature;BME280_humidity;BME280_pressure;Samples;Min_cycle;Max_cycle;Signal;HPM_P1;HPM_P2
2023/08/10 00:00:24;;;;;;;2.57;1.20;;;19.40;99.90;;;19.63;58.91;101650.97;4919815;28;97458;-43
2023/08/10 00:02:51;;;;;;;2.97;1.50;;;19.30;99.90;;;19.62;59.51;101646.56;4920147;28;97264;-42
2023/08/10 00:05:17;;;;;;;2.47;1.00;;;19.30;99.90;;;19.62;60.34;101654.59;4919702;28;97604;-52
2023/08/10 00:07:42;;;;;;;1.70;1.00;;;19.30;99.90;;;19.59;59.68;101652.09;4923004;28;98408;-43
2023/08/10 00:10:09;;;;;;;2.93;1.47;;;19.20;99.90;;;19.54;59.36;101651.47;4922884;28;101522;-42
2023/08/10 00:12:38;;;;;;;1.20;0.87;;;19.20;99.90;;;19.54;60.88;101656.81;4923787;28;97354;-45
2023/08/10 00:15:06;;;;;;;0.63;0.63;;;19.10;99.90;;;19.61;60.83;101644.84;4922733;28;97535;-45
2023/08/10 00:17:33;;;;;;;2.73;0.80;;;19.30;99.90;;;19.65;60.58;101637.47;4966039;22;97992;-48
2023/08/10 00:19:59;;;;;;;1.27;0.90;;;19.40;99.90;;;19.60;59.33;101645.78;4917708;28;97504;-46
2023/08/10 00:22:25;;;;;;;2.07;0.97;;;19.30;99.90;;;19.61;60.56;101643.03;4901992;28;101448;-43
2023/08/10 00:24:51;;;;;;;1.17;0.90;;;19.30;99.90;;;19.63;60.58;101650.09;4902713;28;97697;-45
2023/08/10 00:27:17;;;;;;;0.87;0.77;;;19.30;99.90;;;19.63;60.48;101650.97;4917778;28;97471;-43
2023/08/10 00:29:44;;;;;;;0.80;0.70;;;19.30;99.90;;;19.67;60.47;101646.28;4920526;28;97355;-45
2023/08/10 00:32:10;;;;;;;1.40;0.63;;;19.40;99.90;;;19.73;60.43;101645.94;4916542;28;121153;-44
2023/08/10 00:34:35;;;;;;;1.17;0.80;;;19.50;99.90;;;19.77;60.31;101637.63;4915457;28;97496;-46
2023/08/10 00:37:02;;;;;;;0.47;0.40;;;19.60;99.90;;;19.83;60.08;101642.66;4912795;28;97613;-44
2023/08/10 00:39:28;;;;;;;0.80;0.73;;;19.70;99.90;;;19.87;59.91;101648.69;4916175;28;97516;-43
2023/08/10 00:41:54;;;;;;;1.73;1.03;;;19.70;99.90;;;19.90;59.28;101640.44;4921015;28;124523;-44
2023/08/10 00:44:20;;;;;;;2.13;1.43;;;19.70;99.90;;;19.88;59.45;101635.19;4921167;28;97652;-43
2023/08/10 00:46:46;;;;;;;1.83;0.93;;;19.70;99.90;;;19.84;58.37;101649.72;4938592;28;97578;-43
2023/08/10 00:49:11;;;;;;;2.00;1.30;;;19.60;99.90;;;19.73;58.65;101646.81;4932715;28;124371;-42
2023/08/10 00:51:37;;;;;;;1.00;0.70;;;19.40;99.90;;;19.70;60.15;101646.13;4937855;28;97018;-42
2023/08/10 00:54:05;;;;;;;0.63;0.63;;;19.30;99.90;;;19.72;60.29;101639.72;4939987;28;114623;-42
2023/08/10 00:56:31;;;;;;;1.40;1.20;;;19.40;99.90;;;19.72;60.12;101645.06;4938702;28;97296;-46
2023/08/10 00:58:57;;;;;;;3.23;1.13;;;19.40;99.90;;;19.71;59.56;101653.19;4932894;28;105461;-44
2023/08/10 01:01:24;;;;;;;0.83;0.77;;;19.40;99.90;;;19.70;60.31;101641.63;4936345;28;97570;-43
2023/08/10 01:03:50;;;;;;;1.47;0.70;;;19.40;99.90;;;19.72;60.43;101639.72;4938060;28;96937;-42
2023/08/10 01:06:24;;;;;;;0.67;0.67;;;19.50;99.90;;;19.77;60.32;101643.00;4932735;28;97132;-43
2023/08/10 01:08:59;;;;;;;2.80;0.83;;;19.50;99.90;;;19.78;59.68;101650.06;4920970;28;101110;-42
2023/08/10 01:11:48;;;;;;;2.27;0.93;;;19.50;99.90;;;19.72;59.64;101655.78;4928603;28;98274;-42
2023/08/10 01:14:35;;;;;;;1.23;0.80;;;19.40;99.90;;;19.64;60.08;101660.72;4942510;28;97531;-47
2023/08/10 01:17:08;;;;;;;0.93;0.80;;;19.30;99.90;;;19.64;60.74;101658.03;4895682;28;1187271;-42
2023/08/10 01:19:39;;;;;;;1.47;1.00;;;19.30;99.90;;;19.64;60.55;101666.06;4934052;28;98229;-43
2023/08/10 01:22:42;;;;;;;1.17;1.00;;;19.40;99.90;;;19.65;60.84;101659.75;4916974;28;97655;-42
2023/08/10 01:25:09;;;;;;;1.10;0.70;;;19.30;99.90;;;19.63;60.75;101660.78;4932949;28;97244;-43
2023/08/10 01:27:36;;;;;;;2.60;1.00;;;19.30;99.90;;;19.59;60.54;101665.47;4934547;28;97375;-44
2023/08/10 01:30:04;;;;;;;0.83;0.67;;;19.20;99.90;;;19.59;60.88;101666.34;4935207;28;102860;-44
2023/08/10 01:32:32;;;;;;;2.90;1.20;;;19.30;99.90;;;19.59;61.08;101660.97;4939656;28;98000;-48
2023/08/10 01:34:59;;;;;;;1.00;0.83;;;19.20;99.90;;;19.56;60.64;101665.66;4936606;28;97636;-43
2023/08/10 01:37:26;;;;;;;3.63;1.37;;;19.20;99.90;;;19.58;61.17;101666.44;4931940;28;97300;-42
2023/08/10 01:39:52;;;;;;;1.17;0.63;;;19.20;99.90;;;19.59;61.16;101666.34;4936312;28;97663;-42
2023/08/10 01:42:18;;;;;;;1.00;0.80;;;19.30;99.90;;;19.62;60.99;101659.94;4932189;28;97414;-47
2023/08/10 01:44:44;;;;;;;0.90;0.63;;;19.30;99.90;;;19.66;60.76;101660.63;4926892;28;97023;-43
2023/08/10 01:47:31;;;;;;;1.07;0.90;;;19.40;99.90;;;19.69;60.64;101665.81;4940415;28;97507;-43
2023/08/10 01:50:01;;;;;;;5.33;1.90;;;19.40;99.90;;;19.61;60.27;101667.09;4917529;28;100257;-43
2023/08/10 01:52:38;;;;;;;0.60;0.60;;;19.30;99.90;;;19.60;60.85;101673.41;4917247;28;97610;-43
2023/08/10 01:55:07;;;;;;;1.37;0.97;;;19.30;99.90;;;19.64;60.81;101668.72;4929478;28;97150;-42
2023/08/10 01:57:33;;;;;;;0.93;0.80;;;19.30;99.90;;;19.67;60.97;101668.56;4933622;28;97404;-46
2023/08/10 01:59:59;;;;;;;1.93;1.20;;;19.40;99.90;;;19.69;60.70;101660.47;4924661;28;107120;-43
2023/08/10 02:02:25;;;;;;;1.10;0.90;;;19.50;99.90;;;19.70;60.73;101663.03;4928242;28;97367;-44
2023/08/10 02:04:51;;;;;;;1.40;0.80;;;19.40;99.90;;;19.74;60.80;101675.28;4931404;28;97330;-42
2023/08/10 02:07:17;;;;;;;3.03;1.23;;;19.50;99.90;;;19.75;60.60;101670.81;4922336;28;97607;-44
2023/08/10 02:09:43;;;;;;;2.20;0.90;;;19.60;99.90;;;19.76;60.31;101673.38;4934026;28;116297;-44
2023/08/10 02:12:09;;;;;;;1.47;0.90;;;19.50;99.90;;;19.79;60.63;101667.00;4926144;28;121730;-45
2023/08/10 02:14:34;;;;;;;1.17;0.93;;;19.50;99.90;;;19.79;60.33;101662.50;4939318;28;96936;-42
2023/08/10 02:17:00;;;;;;;1.40;0.83;;;19.50;99.90;;;19.79;60.42;101672.34;4926361;28;100093;-43
2023/08/10 02:19:26;;;;;;;1.00;0.80;;;19.50;99.90;;;19.78;60.37;101676.84;4936666;28;103935;-42
2023/08/10 02:21:53;;;;;;;1.77;1.10;;;19.50;99.90;;;19.80;60.25;101674.94;4933578;28;98286;-43
2023/08/10 02:24:19;;;;;;;3.13;1.50;;;19.50;99.90;;;19.78;59.97;101671.47;4937783;28;97242;-42
2023/08/10 02:26:44;;;;;;;1.87;1.50;;;19.50;99.90;;;19.74;60.29;101680.66;4942923;28;97158;-43
2023/08/10 02:29:10;;;;;;;1.60;0.90;;;19.50;99.90;;;19.72;60.59;101671.84;4934411;28;116152;-43
2023/08/10 02:31:36;;;;;;;2.57;1.30;;;19.40;99.90;;;19.71;60.62;101671.94;4932688;28;107312;-45
2023/08/10 02:34:03;;;;;;;1.70;0.90;;;19.40;99.90;;;19.69;60.53;101672.03;4916456;28;97587;-42
2023/08/10 02:36:29;;;;;;;1.10;1.00;;;19.40;99.90;;;19.68;60.48;101670.31;4937911;28;100852;-43
2023/08/10 02:38:55;;;;;;;4.87;1.00;;;19.40;99.90;;;19.68;60.32;101664.97;4932915;28;98588;-44
2023/08/10 02:41:21;;;;;;;2.20;1.00;;;19.30;99.90;;;19.63;60.06;101660.78;4938257;28;97565;-42
2023/08/10 02:43:46;;;;;;;1.67;1.20;;;19.30;99.90;;;19.56;60.59;101665.66;4918174;28;97909;-41
2023/08/10 02:46:12;;;;;;;0.73;0.70;;;19.20;99.90;;;19.56;61.19;101660.31;4945079;28;97052;-43
2023/08/10 02:48:38;;;;;;;0.67;0.60;;;19.10;99.90;;;19.58;61.20;101658.41;4940831;28;101060;-49
2023/08/10 02:51:04;;;;;;;0.57;0.50;;;19.30;99.90;;;19.60;61.18;101660.03;4940905;28;99250;-46
2023/08/10 02:53:30;;;;;;;1.57;1.00;;;19.30;99.90;;;19.60;60.65;101661.84;4947088;28;97306;-42
2023/08/10 02:55:56;;;;;;;1.90;1.17;;;19.30;99.90;;;19.53;59.48;101655.09;4935074;28;110233;-43
2023/08/10 02:58:22;;;;;;;2.03;1.20;;;19.20;99.90;;;19.43;60.26;101661.91;4942800;28;100667;-46
2023/08/10 03:00:48;;;;;;;4.23;1.27;;;19.00;99.90;;;19.43;60.89;101660.09;4937447;28;98597;-43
2023/08/10 03:03:14;;;;;;;2.60;1.23;;;19.00;99.90;;;19.35;59.79;101666.81;4933538;28;97565;-42
2023/08/10 03:05:40;;;;;;;2.50;0.93;;;18.90;99.90;;;19.37;61.68;101665.78;4937646;28;97415;-47
2023/08/10 03:08:06;;;;;;;1.47;1.07;;;18.90;99.90;;;19.37;61.07;101664.91;4939360;28;97158;-42
2023/08/10 03:10:32;;;;;;;1.37;0.97;;;18.90;99.90;;;19.35;61.08;101666.81;4933936;28;97728;-46
2023/08/10 03:12:57;;;;;;;0.67;0.53;;;18.90;99.90;;;19.35;61.53;101667.69;4925453;28;97791;-42
2023/08/10 03:15:23;;;;;;;1.73;1.03;;;18.90;99.90;;;19.28;60.27;101672.53;4930074;28;97109;-43
2023/08/10 03:17:49;;;;;;;1.33;0.80;;;18.80;99.90;;;19.30;61.69;101678.66;4939890;28;103004;-43
2023/08/10 03:20:16;;;;;;;1.70;1.10;;;18.80;99.90;;;19.30;61.15;101683.16;4931827;28;111455;-42
2023/08/10 03:22:43;;;;;;;0.87;0.80;;;18.80;99.90;;;19.30;61.98;101681.34;4937113;28;97192;-42
2023/08/10 03:25:10;;;;;;;2.37;1.20;;;18.90;99.90;;;19.31;61.08;101687.53;4937581;28;106677;-44
2023/08/10 03:27:36;;;;;;;1.00;0.90;;;18.90;99.90;;;19.25;59.95;101688.75;4936494;28;98006;-42
2023/08/10 03:30:03;;;;;;;2.53;1.20;;;18.80;99.90;;;19.24;61.51;101692.38;4935451;28;100432;-42
2023/08/10 03:32:29;;;;;;;2.57;1.03;;;18.80;99.90;;;19.22;60.92;101693.41;4938607;28;97685;-44
2023/08/10 03:34:55;;;;;;;1.00;0.77;;;18.80;99.90;;;19.19;61.18;101697.09;4936123;28;97911;-42
2023/08/10 03:37:20;;;;;;;1.53;1.03;;;18.70;99.90;;;19.21;61.91;101703.22;4932761;28;97547;-42
2023/08/10 03:39:46;;;;;;;1.50;0.80;;;18.70;99.90;;;19.22;61.99;101699.59;4939766;28;108659;-42
2023/08/10 03:42:12;;;;;;;0.60;0.60;;;18.80;99.90;;;19.20;61.80;101696.16;4939070;28;97080;-42
2023/08/10 03:44:38;;;;;;;0.60;0.53;;;18.80;99.90;;;19.25;62.26;101699.47;4937023;28;97653;-42
2023/08/10 03:47:04;;;;;;;1.17;0.83;;;18.90;99.90;;;19.30;62.13;101692.03;4932306;28;115486;-42
2023/08/10 03:49:29;;;;;;;2.40;0.80;;;19.00;99.90;;;19.32;60.27;101690.13;4939088;28;97227;-46
2023/08/10 03:51:56;;;;;;;1.17;0.80;;;19.00;99.90;;;19.31;61.21;101688.41;4935728;28;97131;-42
2023/08/10 03:54:22;;;;;;;1.97;1.10;;;19.00;99.90;;;19.26;59.12;101695.84;4937241;28;97099;-43
2023/08/10 03:56:48;;;;;;;1.80;1.20;;;18.90;99.90;;;19.19;60.68;101707.81;4939048;28;114830;-45
2023/08/10 03:59:14;;;;;;;0.80;0.60;;;18.70;99.90;;;19.21;61.43;101719.28;4936511;28;109032;-44
2023/08/10 04:01:41;;;;;;;4.17;1.40;;;18.70;99.90;;;19.20;61.37;101717.56;4938417;28;97643;-43
2023/08/10 04:04:08;;;;;;;1.73;0.97;;;18.70;99.90;;;19.13;60.34;101710.84;4936040;28;97271;-46
2023/08/10 04:06:34;;;;;;;0.60;0.57;;;18.60;99.90;;;19.12;61.78;101714.47;4918135;28;97470;-44
2023/08/10 04:08:59;;;;;;;5.37;1.20;;;18.60;99.90;;;19.09;61.25;101714.59;4918701;28;99333;-43
2023/08/10 04:11:25;;;;;;;2.43;1.10;;;18.60;99.90;;;19.08;62.07;101723.56;4935153;28;114521;-44
2023/08/10 04:13:51;;;;;;;2.47;0.87;;;18.60;99.90;;;19.09;61.82;101719.09;4930706;28;114903;-44
2023/08/10 04:16:16;;;;;;;1.33;0.73;;;18.60;99.90;;;19.10;62.32;101720.84;4934615;28;98889;-46
2023/08/10 04:18:42;;;;;;;0.70;0.70;;;18.60;99.90;;;19.12;62.57;101717.13;4924768;28;98329;-44
2023/08/10 04:21:09;;;;;;;1.80;1.00;;;18.70;99.90;;;19.13;61.36;101724.19;4934196;28;107302;-43
2023/08/10 04:23:35;;;;;;;2.93;1.07;;;18.70;99.90;;;19.16;61.81;101725.84;4936743;28;101206;-43
2023/08/10 04:26:01;;;;;;;1.10;0.80;;;18.70;99.90;;;19.20;62.23;101722.91;4940382;28;97535;-42
2023/08/10 04:28:26;;;;;;;1.10;0.87;;;18.80;99.90;;;19.25;62.20;101726.22;4934735;28;97444;-42
2023/08/10 04:30:52;;;;;;;1.30;0.93;;;18.90;99.90;;;19.22;60.53;101730.84;4936003;28;104563;-45
2023/08/10 04:33:18;;;;;;;1.87;0.93;;;18.90;99.90;;;19.23;61.57;101722.72;4941659;28;99817;-47
2023/08/10 04:35:44;;;;;;;2.30;1.20;;;18.80;99.90;;;19.19;61.63;101734.56;4936789;28;102694;-43
2023/08/10 04:38:12;;;;;;;1.60;0.80;;;18.80;99.90;;;19.20;62.06;101738.94;4916840;28;117548;-43
2023/08/10 04:40:38;;;;;;;1.30;0.93;;;18.80;99.90;;;19.22;61.77;101739.72;4938508;28;100088;-45
2023/08/10 04:43:04;;;;;;;4.00;1.07;;;18.80;99.90;;;19.20;61.63;101738.94;4916409;28;96940;-44
2023/08/10 04:45:30;;;;;;;0.87;0.63;;;18.80;99.90;;;19.22;62.03;101742.41;4930979;28;102338;-43
2023/08/10 04:47:55;;;;;;;0.87;0.60;;;18.80;99.90;;;19.27;62.25;101740.34;4935550;28;97182;-42
2023/08/10 04:50:21;;;;;;;1.40;0.57;;;18.90;99.90;;;19.29;61.98;101742.94;4937276;28;97042;-42
2023/08/10 04:52:47;;;;;;;2.80;0.93;;;18.90;99.90;;;19.28;60.94;101742.09;4944885;28;97431;-42
2023/08/10 04:55:13;;;;;;;3.20;1.23;;;18.90;99.90;;;19.22;61.06;101747.75;4937116;28;97759;-43
2023/08/10 04:57:39;;;;;;;2.77;1.07;;;18.80;99.90;;;19.17;61.35;101743.59;4937676;28;97197;-43
2023/08/10 05:00:12;;;;;;;1.60;0.93;;;18.70;99.90;;;19.22;61.99;101757.59;4934956;28;97499;-44
2023/08/10 05:02:38;;;;;;;2.53;1.43;;;18.80;99.90;;;19.17;61.43;101749.81;4934973;28;97531;-45
2023/08/10 05:05:05;;;;;;;5.73;1.60;;;18.80;99.90;;;19.10;61.34;101753.78;4937138;28;98014;-43
2023/08/10 05:07:31;;;;;;;0.83;0.73;;;18.70;99.90;;;19.08;61.91;101752.97;4938173;28;97301;-45
2023/08/10 05:09:57;;;;;;;1.80;1.17;;;18.60;99.90;;;19.09;61.25;101741.34;4936027;28;99859;-46
2023/08/10 05:12:23;;;;;;;2.77;1.40;;;18.60;99.90;;;19.03;60.49;101752.38;4929484;28;97100;-44
2023/08/10 05:14:49;;;;;;;1.53;0.90;;;18.60;99.90;;;19.13;62.54;101742.91;4923453;28;98655;-45
2023/08/10 05:17:15;;;;;;;1.30;0.80;;;18.70;99.90;;;19.17;62.01;101733.78;4932136;28;103259;-43
2023/08/10 05:19:41;;;;;;;4.80;1.30;;;18.80;99.90;;;19.09;60.79;101738.66;4937305;28;97596;-43
2023/08/10 05:22:06;;;;;;;1.97;1.20;;;18.70;99.90;;;19.11;61.50;101734.13;4930926;28;108226;-43
2023/08/10 05:24:32;;;;;;;1.73;0.87;;;18.70;99.90;;;19.16;62.21;101742.75;4921321;28;112043;-44
2023/08/10 05:27:00;;;;;;;1.47;1.00;;;18.80;99.90;;;19.12;60.87;101741.19;4936646;28;116378;-42
2023/08/10 05:29:26;;;;;;;3.27;1.67;;;18.70;99.90;;;19.14;60.89;101733.94;4932811;28;97478;-43
2023/08/10 05:31:52;;;;;;;1.17;0.77;;;18.70;99.90;;;19.21;62.04;101737.13;4931426;28;97471;-43
2023/08/10 05:34:18;;;;;;;0.70;0.60;;;18.80;99.90;;;19.27;62.17;101732.34;4934008;28;102078;-43
2023/08/10 05:36:43;;;;;;;2.50;1.20;;;18.90;99.90;;;19.28;60.61;101739.41;4931575;28;110144;-45
2023/08/10 05:39:09;;;;;;;0.63;0.63;;;18.90;99.90;;;19.27;60.68;101744.84;4928906;28;97248;-42
2023/08/10 05:41:35;;;;;;;3.50;1.13;;;18.90;99.90;;;19.22;60.33;101747.75;4922009;28;97671;-44
2023/08/10 05:44:01;;;;;;;1.97;1.20;;;18.80;99.90;;;19.27;62.26;101744.84;4931414;28;124869;-46
2023/08/10 05:46:26;;;;;;;2.37;0.90;;;18.90;99.90;;;19.30;60.96;101745.53;4933094;28;112927;-42
2023/08/10 05:48:52;;;;;;;3.23;1.20;;;19.00;99.90;;;19.28;60.46;101747.44;4937457;28;100862;-42
2023/08/10 05:51:18;;;;;;;2.60;1.00;;;18.90;99.90;;;19.20;60.56;101748.78;4940055;28;97434;-41
2023/08/10 05:53:44;;;;;;;2.40;1.47;;;18.80;99.90;;;19.19;61.62;101752.41;4937942;28;101661;-44
2023/08/10 05:56:10;;;;;;;2.10;1.20;;;18.80;99.90;;;19.09;60.61;101752.03;4934678;28;123825;-47
2023/08/10 05:58:36;;;;;;;1.77;1.30;;;18.70;99.90;;;19.16;61.10;101749.91;4937475;28;97429;-44
2023/08/10 06:01:03;;;;;;;3.03;1.57;;;18.80;99.90;;;19.12;61.08;101754.56;4939242;28;109668;-42
2023/08/10 06:03:29;;;;;;;3.87;1.40;;;18.80;99.90;;;19.03;60.20;101752.38;4932332;28;97480;-43
2023/08/10 06:05:55;;;;;;;3.53;1.57;;;18.70;99.90;;;18.89;60.24;101750.44;4936038;28;106144;-45
2023/08/10 06:08:22;;;;;;;3.33;1.47;;;18.50;99.90;;;18.84;60.71;101751.63;4943215;28;98014;-42
2023/08/10 06:10:50;;;;;;;2.00;1.30;;;18.50;99.90;;;18.78;60.35;101751.94;4940446;28;97196;-44
2023/08/10 06:13:20;;;;;;;5.43;1.70;;;18.40;99.90;;;18.69;59.97;101750.63;4931906;28;102847;-46
2023/08/10 06:15:48;;;;;;;2.77;1.40;;;18.40;99.90;;;18.61;60.43;101751.00;4937202;28;101082;-41
2023/08/10 06:18:14;;;;;;;6.17;1.60;;;18.30;99.90;;;18.61;60.41;101751.00;4930862;28;96986;-45
2023/08/10 06:20:40;;;;;;;2.70;1.90;;;18.30;99.90;;;18.66;61.13;101751.66;4935349;28;97339;-44
2023/08/10 06:23:06;;;;;;;2.80;1.63;;;18.30;99.90;;;18.82;62.81;101753.53;4937066;28;98878;-44
2023/08/10 06:25:33;;;;;;;3.53;1.50;;;18.50;99.90;;;18.84;59.93;101754.31;4934686;28;97094;-46
2023/08/10 06:27:59;;;;;;;3.17;1.67;;;18.50;99.90;;;18.71;60.00;101760.31;4934003;28;97856;-42
2023/08/10 06:30:25;;;;;;;2.90;1.43;;;18.50;99.90;;;18.59;60.42;101752.03;4929813;28;103290;-42
2023/08/10 06:32:51;;;;;;;5.47;1.53;;;18.40;99.90;;;18.59;61.79;101752.03;4931459;28;109863;-44
2023/08/10 06:35:19;;;;;;;2.17;1.70;;;18.30;99.90;;;18.55;62.65;101751.31;4927051;28;111137;-47
2023/08/10 06:37:48;;;;;;;1.90;1.60;;;18.30;99.90;;;18.53;62.30;101747.88;4925026;28;99512;-46
2023/08/10 06:40:15;;;;;;;3.83;1.80;;;18.30;99.90;;;18.48;61.31;101744.56;4929633;28;97036;-42
2023/08/10 06:42:41;;;;;;;2.43;2.10;;;18.20;99.90;;;18.48;60.54;101752.56;4936810;28;101532;-43
2023/08/10 06:45:08;;;;;;;2.57;1.67;;;18.20;99.90;;;18.39;60.49;101755.72;4938926;28;97284;-47
2023/08/10 06:47:35;;;;;;;3.43;1.50;;;18.20;99.90;;;18.39;60.86;101755.72;4916734;28;98087;-44
2023/08/10 06:50:03;;;;;;;4.13;1.67;;;18.20;99.90;;;18.48;60.11;101763.25;4916810;28;97414;-46
2023/08/10 06:52:30;;;;;;;3.80;2.40;;;18.20;99.90;;;18.58;60.45;101763.66;4909481;28;97877;-44
2023/08/10 06:54:55;;;;;;;3.43;1.90;;;18.30;99.90;;;18.61;60.04;101759.00;4914775;28;108800;-46
2023/08/10 06:57:22;;;;;;;3.33;2.10;;;18.40;99.90;;;18.68;60.82;101765.81;4915554;28;97189;-43
2023/08/10 06:59:48;;;;;;;6.23;1.87;;;18.40;99.90;;;18.62;60.40;101774.09;4908269;28;97512;-42
2023/08/10 07:02:15;;;;;;;4.57;1.97;;;18.40;99.90;;;18.64;61.11;101771.38;4912428;28;101703;-43
2023/08/10 07:04:43;;;;;;;2.63;1.47;;;18.40;99.90;;;18.67;62.79;101766.75;4911952;28;101090;-43
2023/08/10 07:07:10;;;;;;;2.13;1.10;;;18.40;99.90;;;18.73;63.09;101769.09;4910513;28;97939;-48
2023/08/10 07:09:36;;;;;;;1.07;0.93;;;18.50;99.90;;;18.94;63.08;101769.75;4917144;28;97208;-44
2023/08/10 07:12:03;;;;;;;0.73;0.70;;;18.70;99.90;;;19.13;62.42;101769.66;4911117;28;97874;-44
2023/08/10 07:14:29;;;;;;;1.90;1.30;;;19.00;99.90;;;19.29;61.62;101765.22;4896774;28;99145;-44
2023/08/10 07:16:55;;;;;;;1.83;1.07;;;19.20;99.90;;;19.37;58.67;101766.59;4900040;28;98980;-43
2023/08/10 07:19:22;;;;;;;2.37;1.33;;;19.30;99.90;;;19.35;56.81;101773.84;4905682;28;96973;-45
2023/08/10 07:21:48;;;;;;;1.30;0.97;;;19.20;99.90;;;19.41;60.26;101766.34;4911699;28;97652;-44
2023/08/10 07:24:14;;;;;;;2.20;0.80;;;19.20;99.90;;;19.52;61.04;101765.72;4909670;28;99521;-45
2023/08/10 07:26:39;;;;;;;2.20;1.07;;;19.30;99.90;;;19.47;57.05;101762.47;4913194;28;97153;-42
2023/08/10 07:29:05;;;;;;;2.20;1.20;;;19.30;99.90;;;19.41;55.49;101763.69;4903024;28;104939;-46
2023/08/10 07:31:34;;;;;;;1.73;0.90;;;19.30;99.90;;;19.28;55.75;101762.63;4917643;28;98238;-43
2023/08/10 07:34:00;;;;;;;3.37;0.93;;;19.10;99.90;;;19.24;54.00;101766.38;4911245;28;98574;-45
2023/08/10 07:36:26;;;;;;;2.70;1.10;;;19.10;99.90;;;19.37;56.79;101761.22;4916604;28;97271;-47
2023/08/10 07:38:55;;;;;;;3.70;0.90;;;19.20;99.90;;;19.33;57.40;101764.09;4915701;28;97539;-42
2023/08/10 07:41:22;;;;;;;2.60;0.87;;;19.10;99.90;;;19.28;55.06;101763.47;4904557;28;98034;-45
2023/08/10 07:43:49;;;;;;;2.53;1.03;;;19.10;99.90;;;19.28;57.78;101768.84;4923839;28;97288;-50
2023/08/10 07:46:16;;;;;;;1.87;0.93;;;19.10;99.90;;;19.27;53.74;101771.59;4921689;28;101408;-44
2023/08/10 07:48:42;;;;;;;0.47;0.43;;;19.10;99.90;;;19.45;60.80;101764.38;4922496;28;98338;-44
2023/08/10 07:51:08;;;;;;;1.07;0.53;;;19.30;99.90;;;19.59;60.41;101767.16;4918855;28;99998;-43
2023/08/10 07:53:34;;;;;;;1.03;0.63;;;19.50;99.90;;;19.65;58.17;101766.81;4918410;28;98984;-42
2023/08/10 07:56:00;;;;;;;3.57;0.80;;;19.50;99.90;;;19.63;54.65;101768.72;4927494;28;100738;-42
2023/08/10 07:58:25;;;;;;;2.00;1.43;;;19.50;99.90;;;19.60;54.45;101768.91;4924972;28;100092;-43
2023/08/10 08:00:51;;;;;;;2.10;0.60;;;19.50;99.90;;;19.52;53.56;101774.63;4911575;28;107268;-43
2023/08/10 08:03:17;;;;;;;1.70;1.00;;;19.40;99.90;;;19.64;59.84;101770.44;4931699;28;97673;-47
2023/08/10 08:05:43;;;;;;;0.90;0.53;;;19.50;99.90;;;19.72;59.58;101765.53;4920674;28;97782;-45
2023/08/10 08:08:09;;;;;;;1.17;0.70;;;19.60;99.90;;;19.82;59.71;101771.25;4927419;28;102825;-43
2023/08/10 08:10:36;;;;;;;0.80;0.50;;;19.80;99.90;;;19.90;59.06;101772.50;4925510;28;97394;-43
2023/08/10 08:13:03;;;;;;;1.17;0.40;;;19.90;99.90;;;19.87;51.00;101764.66;4908307;28;97674;-43
2023/08/10 08:15:30;;;;;;;1.80;0.53;;;19.90;99.90;;;19.99;56.76;101759.56;4924172;28;101060;-43
2023/08/10 08:18:46;;;;;;;4.13;0.60;;;19.90;99.90;;;20.05;57.37;101761.88;4927809;28;97210;-44
2023/08/10 08:21:18;;;;;;;1.10;0.73;;;20.00;99.90;;;20.06;58.91;101761.78;4927680;28;100254;-43
2023/08/10 08:23:46;;;;;;;1.77;0.70;;;20.00;99.90;;;20.11;58.61;101765.06;4925774;28;103766;-45
2023/08/10 08:26:16;;;;;;;1.00;0.60;;;20.10;99.90;;;20.14;58.62;101759.53;4923356;28;99286;-46
2023/08/10 08:28:44;;;;;;;1.60;0.70;;;20.20;99.90;;;20.18;58.68;101760.22;4923140;28;98238;-49
2023/08/10 08:31:10;;;;;;;4.83;1.00;;;20.20;99.90;;;20.21;58.52;101762.69;4930400;28;97824;-45
2023/08/10 08:33:38;;;;;;;3.30;0.83;;;20.30;99.90;;;20.24;58.40;101762.53;4925124;28;98530;-46
2023/08/10 08:36:05;;;;;;;1.83;0.80;;;20.30;99.90;;;20.27;54.36;101759.69;4923972;28;97035;-45
2023/08/10 08:38:37;;;;;;;0.67;0.50;;;20.40;99.90;;;20.24;49.81;101753.63;4907347;28;97155;-46
2023/08/10 08:41:09;;;;;;;3.50;0.70;;;20.20;99.90;;;20.27;49.10;101753.47;4912518;28;98927;-46
2023/08/10 08:43:38;;;;;;;0.70;0.50;;;20.20;99.90;;;20.27;49.77;101754.31;4900824;28;98452;-47
2023/08/10 08:46:06;;;;;;;1.03;0.67;;;20.20;99.90;;;20.15;46.45;101760.41;4909380;28;97098;-41
2023/08/10 08:48:33;;;;;;;2.63;0.60;;;20.20;99.90;;;20.18;46.27;101763.75;4902041;28;97309;-44
2023/08/10 08:50:59;;;;;;;1.03;0.33;;;20.10;99.90;;;20.15;43.30;101761.25;4909526;28;98785;-46
2023/08/10 08:53:25;;;;;;;0.83;0.40;;;20.10;99.90;;;20.17;44.44;101759.34;4892292;28;99024;-50
2023/08/10 08:55:51;;;;;;;3.47;0.60;;;20.10;99.90;;;20.19;47.70;101744.03;4913940;28;97524;-45
2023/08/10 08:58:23;;;;;;;1.90;0.60;;;20.10;99.90;;;20.25;55.45;101748.16;4916835;28;97894;-49
2023/08/10 09:00:54;;;;;;;5.17;0.60;;;20.20;99.90;;;20.20;44.15;101750.25;4909672;28;103637;-46
2023/08/10 09:03:26;;;;;;;15.40;1.47;;;20.20;99.90;;;20.26;55.70;101747.25;4912844;28;99800;-45
2023/08/10 09:05:52;;;;;;;3.50;0.70;;;20.20;99.90;;;20.17;44.83;101740.59;4913193;28;97620;-48
2023/08/10 09:08:20;;;;;;;0.90;0.50;;;20.20;99.90;;;20.20;45.42;101731.50;4916943;28;98408;-47
2023/08/10 09:10:47;;;;;;;0.73;0.50;;;20.10;99.90;;;20.20;43.65;101728.84;4912515;28;98203;-45
2023/08/10 09:13:17;;;;;;;1.57;0.50;;;20.10;99.90;;;20.16;43.56;101729.97;4918208;28;98908;-44
2023/08/10 09:15:43;;;;;;;1.70;0.40;;;20.10;99.90;;;20.21;52.06;101731.41;4913897;28;97535;-44
2023/08/10 09:18:09;;;;;;;1.30;0.60;;;20.10;99.90;;;20.21;43.68;101733.25;4912306;28;97166;-48
2023/08/10 09:20:35;;;;;;;0.47;0.43;;;20.10;99.90;;;20.27;45.17;101721.31;4913469;28;98249;-46
2023/08/10 09:23:01;;;;;;;0.53;0.30;;;20.20;99.90;;;20.29;46.16;101720.25;4910558;28;98434;-44
2023/08/10 09:25:39;;;;;;;0.73;0.50;;;20.20;99.90;;;20.35;54.25;101725.25;4911868;28;97412;-47
2023/08/10 09:28:15;;;;;;;4.43;0.63;;;20.30;99.90;;;20.33;45.41;101721.78;4919344;28;98011;-43
2023/08/10 09:30:41;;;;;;;2.97;0.40;;;20.40;99.90;;;20.39;52.34;101718.75;4909644;28;104554;-45
2023/08/10 09:33:07;;;;;;;1.00;0.40;;;20.40;99.90;;;20.40;48.99;101728.53;4912760;28;100465;-44
2023/08/10 09:35:38;;;;;;;2.60;0.63;;;20.40;99.90;;;20.43;47.54;101717.66;4910296;28;97857;-47
2023/08/10 09:38:04;;;;;;;1.73;0.90;;;20.40;99.90;;;20.46;46.14;101721.97;4896320;28;98109;-45
2023/08/10 09:40:30;;;;;;;1.03;0.80;;;20.50;99.90;;;20.45;45.47;101718.41;4911948;28;97756;-45
2023/08/10 09:42:56;;;;;;;0.60;0.53;;;20.50;99.90;;;20.50;49.91;101719.00;4897081;28;97513;-45
2023/08/10 09:45:22;;;;;;;3.47;1.30;;;20.50;99.90;;;20.49;47.48;101717.28;4916794;28;98673;-44
2023/08/10 09:47:48;;;;;;;3.03;0.80;;;20.50;99.90;;;20.57;51.16;101718.63;4911918;28;104284;-44
2023/08/10 09:50:15;;;;;;;1.80;0.77;;;20.60;99.90;;;20.58;52.90;101729.25;4913694;28;97422;-47
2023/08/10 09:52:42;;;;;;;4.83;1.40;;;20.60;99.90;;;20.58;49.42;101725.72;4912957;28;102374;-48
2023/08/10 09:55:10;;;;;;;2.73;1.23;;;20.60;99.90;;;20.61;48.95;101730.88;4913117;28;97643;-47
2023/08/10 09:57:44;;;;;;;1.43;1.20;;;20.70;99.90;;;20.64;46.05;101730.69;4898441;28;102203;-44
2023/08/10 10:00:18;;;;;;;2.20;1.20;;;20.70;99.90;;;20.65;45.68;101722.56;4910931;28;98767;-45
2023/08/10 10:02:46;;;;;;;2.70;1.00;;;20.70;99.90;;;20.66;52.70;101729.63;4913525;28;102519;-47
2023/08/10 10:05:12;;;;;;;3.60;1.27;;;20.80;99.90;;;20.66;49.59;101728.78;4917196;28;97962;-44
2023/08/10 10:07:39;;;;;;;4.17;1.13;;;20.80;99.90;;;20.72;46.41;101728.44;4910088;28;97942;-44
2023/08/10 10:10:12;;;;;;;4.10;1.23;;;20.80;99.90;;;20.73;47.04;101719.44;4913034;28;97376;-45